Lebanon Junction, Kentucky
Current Conditions -  °F | °C
As of 1:58 AM on Wednesday 22 Oct 2014 (Local Time) from KFTK Reporting Station
Clear Clear  
Wind Chill: 46°   Ceiling: Unl
Heat Index: 48°   Visibility: 10mi
Dew Point: 42°   Wind: 5mph
Humidity: 79%   Direction: 30°NNE
Pressure: 30.16"   Gusts: NA
Location:  37.83°N, 85.73°W
Report Text: KFTK 220558Z AUTO 03004KT 10SM CLR 09/05 A3016 RMK AO2 SLP216 T00890054 10118 20089 52007
Loading
Personal Weather Stations






























Interactive Weather Map
Tropical Storm Tracking
New forecast layout! Learn more

10-Day Weather Forecast

Advertisements
Track Severe Weather on mobile